LPAZ/SMA METAR and TAF weather

Enter ICAO airport designator
Station Type Date Time Source
LPAZ METAR 2020/01/29 12:30 UTC NOAA

LPAZ 291230Z 24014KT 9999 FEW003 SCT011 18/16 Q1015


Station Type Date Time Source
LPAZ Decoded METAR 2020/01/29 12:30 UTC NOAA

Santa Maria Acores , Portugal (LPAZ) 36-58N 025-10W 100M
Jan 29, 2020 - 07:30 AM EST / 2020.01.29 1230 UTC
Wind: from the WSW (240 degrees) at 16 MPH (14 KT):0
Visibility: greater than 7 mile(s):0
Sky conditions: partly cloudy
Temperature: 64 F (18 C)
Dew Point: 60 F (16 C)
Relative Humidity: 88%
Pressure (altimeter): 29.97 in. Hg (1015 hPa)
ob: LPAZ 291230Z 24014KT 9999 FEW003 SCT011 18/16 Q1015
cycle: 12

Station Type Date Time Source
LPAZ TAF 2020/01/29 12:18 UTC NOAA

TAF TAF LPAZ 291100Z 2912/3018 24015KT 9999 SCT012 SCT020
BECMG 2918/2920 24010KT
BECMG 3006/3009 21017KT 6000 -RA SCT006 BKN012
TEMPO 3009/3018 21020G30KT 3000 RADZ BR SCT003 BKN006

Example: see airport list